createdAt,value
2018-03-25T16:54:00.718Z,14.40
2018-03-25T16:56:30.897Z,14.40
2018-03-25T16:59:01.984Z,14.20
2018-03-25T17:01:37.089Z,14.10
2018-03-25T17:04:08.043Z,14.10
2018-03-25T17:06:40.408Z,14.30
2018-03-25T17:09:11.558Z,14.40
2018-03-25T17:11:42.883Z,14.30
2018-03-25T17:14:14.526Z,14.20
2018-03-25T17:16:47.596Z,14.00
2018-03-25T17:19:22.202Z,13.90
2018-03-25T17:22:02.902Z,13.90
2018-03-25T17:24:38.478Z,13.70
2018-03-25T17:27:18.606Z,13.70
2018-03-25T17:29:53.685Z,13.60
2018-03-25T17:32:33.765Z,13.60
2018-03-25T17:35:09.470Z,13.60
2018-03-25T17:49:06.058Z,13.60
2018-03-25T17:59:15.320Z,13.40
2018-03-25T18:09:31.557Z,13.60
2018-03-25T18:12:49.955Z,13.60
2018-03-25T18:16:26.399Z,13.70
2018-03-25T18:19:46.855Z,13.60
2018-03-25T18:22:58.093Z,13.60
2018-03-25T18:26:18.765Z,13.60
2018-03-25T18:30:12.007Z,13.50
2018-03-25T18:37:21.061Z,13.10
2018-03-25T18:44:34.229Z,13.00
2018-03-25T18:48:02.652Z,12.90
2018-03-25T18:51:11.452Z,12.90
2018-03-25T18:58:51.725Z,13.00
2018-03-25T19:02:28.954Z,13.20
2018-03-25T19:05:50.902Z,13.20
2018-03-25T19:09:09.383Z,13.00
2018-03-25T19:15:48.246Z,13.00
2018-03-25T19:19:00.583Z,13.00
2018-03-25T19:22:08.031Z,13.10
2018-03-25T19:25:33.067Z,13.00
2018-03-25T19:28:51.185Z,13.00
2018-03-25T19:32:00.144Z,13.00
2018-03-25T19:35:13.112Z,13.00
2018-03-25T19:38:20.978Z,13.00
2018-03-25T19:41:29.768Z,12.80
2018-03-25T19:44:50.130Z,12.90
2018-03-25T19:47:58.896Z,12.90
2018-03-25T19:51:03.068Z,13.00
2018-03-25T19:57:59.569Z,12.80
2018-03-25T20:01:07.449Z,12.60
2018-03-25T20:04:10.392Z,12.60
2018-03-25T20:07:18.495Z,12.60
2018-03-25T20:10:31.980Z,12.30
2018-03-25T20:13:41.176Z,12.30
2018-03-25T20:16:52.935Z,12.30
2018-03-25T20:19:58.117Z,12.30
2018-03-25T20:23:06.082Z,12.10
2018-03-25T20:26:13.442Z,12.10
2018-03-25T20:29:16.688Z,12.10
2018-03-25T20:32:20.256Z,12.20
2018-03-25T20:38:58.993Z,12.20
